Time;durP1;ratioP1;P1;durP2;ratioP2;P2;SDS_P1;SDS_P2;PMS_P1;PMS_P2;Temp;Humidity;BMP_temperature;BMP_pressure;BME280_temperature;BME280_humidity;BME280_pressure;Samples;Min_cycle;Max_cycle;Signal;HPM_P1;HPM_P2
2022/09/20 00:01:37;;;;;;;;;12.25;9.00;;;;;26.13;100.00;101394.13;5079497;28;51069;-60
2022/09/20 00:04:21;;;;;;;;;18.50;10.25;;;;;26.18;100.00;101394.75;5063949;28;51170;-61
2022/09/20 00:07:05;;;;;;;;;12.75;10.50;;;;;26.20;100.00;101395.50;5079762;28;51115;-60
2022/09/20 00:09:50;;;;;;;;;15.25;10.50;;;;;26.12;100.00;101381.47;5079513;28;51199;-61
2022/09/20 00:12:34;;;;;;;;;10.00;10.00;;;;;26.20;100.00;101397.38;5079672;28;51099;-61
2022/09/20 00:15:18;;;;;;;;;17.25;11.50;;;;;26.20;100.00;101395.50;5079348;28;51528;-61
2022/09/20 00:18:03;;;;;;;;;14.00;10.00;;;;;26.21;100.00;101388.22;5079439;28;51047;-61
2022/09/20 00:20:48;;;;;;;;;18.50;14.75;;;;;26.21;100.00;101385.50;5079458;28;51338;-61
2022/09/20 00:23:34;;;;;;;;;19.50;12.75;;;;;26.22;100.00;101371.75;5079316;28;51069;-61
2022/09/20 00:26:19;;;;;;;;;15.75;10.75;;;;;26.21;100.00;101370.00;5079281;28;51165;-61
2022/09/20 00:29:04;;;;;;;;;13.00;10.50;;;;;26.19;100.00;101354.69;5079291;28;51248;-61
2022/09/20 00:31:49;;;;;;;;;11.25;11.25;;;;;26.23;100.00;101362.59;5079009;28;51427;-61
2022/09/20 00:37:39;;;;;;;;;6.75;5.75;;;;;26.25;100.00;101355.22;5079540;28;51093;-61
2022/09/20 00:40:25;;;;;;;;;18.00;10.00;;;;;26.25;100.00;101351.59;5079037;28;51498;-61
2022/09/20 00:43:15;;;;;;;;;12.50;11.50;;;;;26.28;100.00;101346.88;5078520;28;51121;-61
2022/09/20 00:46:00;;;;;;;;;12.00;10.75;;;;;26.27;100.00;101336.03;5079199;28;51409;-61
2022/09/20 00:48:45;;;;;;;;;16.00;14.25;;;;;26.29;100.00;101332.25;5049265;28;51088;-61
2022/09/20 00:51:33;;;;;;;;;11.50;11.50;;;;;26.25;100.00;101322.50;5078628;28;51424;-61
2022/09/20 00:54:19;;;;;;;;;11.25;9.25;;;;;26.31;100.00;101329.41;5063423;28;51104;-61
2022/09/20 00:57:04;;;;;;;;;17.25;13.00;;;;;26.32;100.00;101330.28;5063746;28;51533;-61
2022/09/20 00:59:49;;;;;;;;;9.25;7.75;;;;;26.31;100.00;101318.50;5078973;28;51028;-61
2022/09/20 01:02:36;;;;;;;;;15.00;13.50;;;;;26.22;100.00;101294.53;5064747;27;51347;-62
2022/09/20 01:05:21;;;;;;;;;13.75;10.75;;;;;26.31;100.00;101315.78;5067008;27;51177;-61
2022/09/20 01:08:06;;;;;;;;;13.50;10.75;;;;;26.29;100.00;101312.25;5082737;27;51152;-61
2022/09/20 01:10:51;;;;;;;;;14.25;11.00;;;;;26.33;100.00;101307.50;5082487;27;52045;-62
2022/09/20 01:13:36;;;;;;;;;12.00;10.00;;;;;26.30;100.00;101308.56;5082731;27;51051;-61
2022/09/20 01:16:21;;;;;;;;;18.00;10.50;;;;;26.28;100.00;101305.03;5073870;27;51316;-61
2022/09/20 01:19:19;;;;;;;;;9.75;7.25;;;;;26.30;100.00;101309.44;5082247;27;51130;-60
2022/09/20 01:22:07;;;;;;;;;17.00;12.25;;;;;26.29;100.00;101304.06;5066915;27;51637;-61
2022/09/20 01:25:12;;;;;;;;;16.00;12.75;;;;;26.29;100.00;101304.97;5066429;27;51004;-61
2022/09/20 01:27:56;;;;;;;;;17.25;12.00;;;;;26.29;100.00;101295.88;5082310;27;51178;-61
2022/09/20 01:31:08;;;;;;;;;14.75;11.75;;;;;26.28;100.00;101291.41;5066670;27;51149;-61
2022/09/20 01:34:00;;;;;;;;;10.75;6.25;;;;;26.27;100.00;101295.09;5066606;27;51208;-60
2022/09/20 01:37:18;;;;;;;;;12.75;11.00;;;;;26.28;100.00;101297.75;5067030;27;51317;-61
2022/09/20 01:40:10;;;;;;;;;12.50;11.25;;;;;26.27;100.00;101304.19;5066691;27;51057;-61
2022/09/20 01:43:21;;;;;;;;;20.25;12.50;;;;;26.27;100.00;101286.91;5078471;27;51240;-60
2022/09/20 01:46:31;;;;;;;;;16.00;9.25;;;;;26.26;100.00;101306.97;5082044;27;51142;-61
2022/09/20 01:49:50;;;;;;;;;17.50;14.50;;;;;26.26;100.00;101298.78;5081871;27;51163;-61
2022/09/20 01:53:07;;;;;;;;;16.75;13.25;;;;;26.27;100.00;101297.84;5081704;27;51134;-61
2022/09/20 01:56:12;;;;;;;;;19.25;11.50;;;;;26.22;100.00;101286.34;5066238;27;51110;-61
2022/09/20 01:59:02;;;;;;;;;7.25;6.25;;;;;26.28;100.00;101294.13;5066130;27;51368;-61
2022/09/20 02:01:52;;;;;;;;;14.25;10.00;;;;;26.27;100.00;101286.91;5066127;27;51073;-60
2022/09/20 02:05:04;;;;;;;;;17.00;14.00;;;;;26.27;100.00;101287.81;5081697;27;51114;-61
2022/09/20 02:07:55;;;;;;;;;9.00;4.25;;;;;26.26;100.00;101287.88;5081713;27;51195;-61
2022/09/20 02:10:40;;;;;;;;;16.00;11.25;;;;;26.25;100.00;101287.03;5066192;27;51423;-61
2022/09/20 02:13:30;;;;;;;;;11.00;9.25;;;;;26.27;100.00;101284.19;5081294;27;51090;-61
2022/09/20 02:16:30;;;;;;;;;12.75;11.00;;;;;26.28;100.00;101283.22;5081541;27;51070;-61
2022/09/20 02:19:50;;;;;;;;;13.75;10.00;;;;;26.28;100.00;101284.13;5080919;27;51176;-61
2022/09/20 02:22:50;;;;;;;;;17.50;12.00;;;;;26.29;100.00;101280.41;5081809;27;51128;-61
2022/09/20 02:25:53;;;;;;;;;15.75;11.75;;;;;26.32;100.00;101286.63;5081210;27;51113;-61
2022/09/20 02:28:48;;;;;;;;;18.50;14.50;;;;;26.30;100.00;101284.88;5070622;27;51172;-61
2022/09/20 02:31:58;;;;;;;;;21.50;13.00;;;;;26.36;100.00;101285.47;5081296;27;51162;-61
2022/09/20 02:35:10;;;;;;;;;17.75;13.00;;;;;26.34;100.00;101292.88;5065884;27;51102;-61
2022/09/20 02:38:19;;;;;;;;;14.00;11.00;;;;;26.27;100.00;101293.28;5069507;27;51563;-61
2022/09/20 02:41:25;;;;;;;;;23.75;13.75;;;;;26.23;100.00;101291.69;5081001;27;51149;-60
2022/09/20 02:44:39;;;;;;;;;15.00;12.50;;;;;26.23;100.00;101294.41;5072646;27;51178;-61
2022/09/20 02:47:39;;;;;;;;;17.00;15.50;;;;;26.26;100.00;101296.06;5065182;27;51144;-61
2022/09/20 02:50:41;;;;;;;;;17.50;13.00;;;;;26.28;100.00;101305.03;5065975;27;51049;-61
2022/09/20 02:53:32;;;;;;;;;20.25;14.75;;;;;26.19;100.00;101300.16;5051404;27;51043;-62
2022/09/20 02:56:28;;;;;;;;;17.50;15.00;;;;;26.09;100.00;101310.69;5080394;27;51225;-60
2022/09/20 02:59:33;;;;;;;;;9.75;5.25;;;;;26.01;100.00;101300.28;5080627;27;51040;-61
2022/09/20 03:02:46;;;;;;;;;16.00;13.25;;;;;25.93;100.00;101303.44;5065291;27;51144;-60
2022/09/20 03:05:49;;;;;;;;;19.25;14.50;;;;;25.94;100.00;101304.31;5080304;27;51133;-61
2022/09/20 03:08:52;;;;;;;;;19.00;11.75;;;;;25.96;100.00;101303.28;5080394;27;51220;-62
2022/09/20 03:11:50;;;;;;;;;18.00;12.25;;;;;26.00;100.00;101298.50;5065063;27;51480;-62
2022/09/20 03:14:53;;;;;;;;;18.50;13.00;;;;;26.07;100.00;101301.75;5080300;27;51200;-61
2022/09/20 03:18:16;;;;;;;;;16.75;14.00;;;;;26.10;100.00;101305.19;5080745;27;51053;-61
2022/09/20 03:21:22;;;;;;;;;15.25;13.25;;;;;26.13;100.00;101301.41;5080104;27;51561;-61
2022/09/20 03:24:24;;;;;;;;;15.00;12.67;;;;;26.14;100.00;101292.25;5072910;27;51140;-61
2022/09/20 03:27:29;;;;;;;;;15.00;11.50;;;;;26.14;100.00;101298.56;5079941;27;51086;-61
2022/09/20 03:30:35;;;;;;;;;13.25;12.25;;;;;26.16;100.00;101295.78;5065238;27;51208;-61
2022/09/20 03:33:36;;;;;;;;;19.25;11.00;;;;;26.17;100.00;101291.19;5079862;27;51405;-60
2022/09/20 03:36:40;;;;;;;;;14.00;13.25;;;;;26.18;100.00;101295.66;5080028;27;51026;-60
2022/09/20 03:39:36;;;;;;;;;9.75;6.25;;;;;26.19;100.00;101295.56;5064443;27;51527;-61
2022/09/20 03:42:29;;;;;;;;;17.50;13.50;;;;;26.15;100.00;101296.75;5077527;27;51114;-61
2022/09/20 03:45:36;;;;;;;;;21.50;12.75;;;;;26.17;100.00;101297.53;5059580;28;51069;-61
2022/09/20 03:48:52;;;;;;;;;20.00;13.00;;;;;26.15;100.00;101304.91;5059315;28;51029;-61
2022/09/20 03:52:13;;;;;;;;;18.75;13.50;;;;;26.14;100.00;101301.31;5059418;28;50985;-60
2022/09/20 03:55:39;;;;;;;;;18.00;12.50;;;;;26.12;100.00;101299.66;5059039;28;51257;-61
2022/09/20 03:58:45;;;;;;;;;16.00;11.25;;;;;26.12;100.00;101305.09;4965587;28;51204;-61
2022/09/20 04:01:41;;;;;;;;;15.25;12.75;;;;;26.12;100.00;101305.09;5036032;28;51125;-61
2022/09/20 04:04:49;;;;;;;;;15.50;15.00;;;;;26.11;100.00;101314.25;5042059;28;51103;-61
2022/09/20 04:07:34;;;;;;;;;14.50;12.00;;;;;26.11;100.00;101304.25;5059508;28;51247;-61
2022/09/20 04:10:50;;;;;;;;;14.75;11.00;;;;;26.12;100.00;101316.00;5040907;28;51100;-61
2022/09/20 04:13:38;;;;;;;;;15.25;13.50;;;;;26.10;100.00;101312.50;5043316;28;51158;-61
2022/09/20 04:16:38;;;;;;;;;19.00;13.25;;;;;26.11;100.00;101312.41;5058998;28;51359;-62
2022/09/20 04:19:30;;;;;;;;;16.00;13.25;;;;;26.13;100.00;101315.03;5043615;28;51211;-60
2022/09/20 04:22:17;;;;;;;;;22.00;15.25;;;;;26.12;100.00;101326.91;5043863;28;51179;-61
2022/09/20 04:25:14;;;;;;;;;10.25;9.00;;;;;26.11;100.00;101328.78;5046273;28;51172;-60
2022/09/20 04:28:07;;;;;;;;;18.25;14.00;;;;;26.12;100.00;101333.25;5038846;28;51315;-60
2022/09/20 04:30:58;;;;;;;;;18.00;13.25;;;;;26.05;100.00;101309.16;5034264;28;51191;-62
2022/09/20 04:33:48;;;;;;;;;17.50;14.00;;;;;26.12;100.00;101325.09;5058959;28;51368;-61
2022/09/20 04:37:02;;;;;;;;;16.75;12.75;;;;;26.13;100.00;101321.38;5044975;28;51133;-61
2022/09/20 04:39:56;;;;;;;;;11.25;9.00;;;;;26.12;100.00;101319.63;5048166;28;51099;-61
2022/09/20 04:43:17;;;;;;;;;14.25;12.50;;;;;26.13;100.00;101312.31;5060057;28;51411;-61
2022/09/20 04:46:27;;;;;;;;;14.50;10.75;;;;;26.11;100.00;101328.78;5079877;27;51660;-61
2022/09/20 04:49:31;;;;;;;;;15.00;13.25;;;;;26.12;100.00;101340.56;5082918;27;51409;-61
2022/09/20 04:52:21;;;;;;;;;18.75;12.75;;;;;26.14;100.00;101341.34;5067571;27;51107;-62
2022/09/20 04:55:35;;;;;;;;;21.00;15.25;;;;;26.16;100.00;101346.69;5082714;27;51153;-61
2022/09/20 04:58:43;;;;;;;;;21.50;13.00;;;;;26.17;100.00;101340.28;5082539;27;51187;-62
2022/09/20 05:02:02;;;;;;;;;17.25;13.50;;;;;26.14;100.00;101353.13;5059757;27;51546;-61
2022/09/20 05:04:50;;;;;;;;;17.25;13.25;;;;;26.13;100.00;101354.13;5036114;27;51212;-61
2022/09/20 05:08:08;;;;;;;;;19.50;14.50;;;;;26.12;100.00;101360.53;5076797;27;51011;-61
2022/09/20 05:11:22;;;;;;;;;20.25;15.00;;;;;26.11;100.00;101357.88;5082412;27;51440;-61
2022/09/20 05:14:28;;;;;;;;;13.00;11.00;;;;;26.10;100.00;101367.94;5082799;27;51165;-60
2022/09/20 05:17:21;;;;;;;;;16.00;10.00;;;;;26.09;100.00;101362.50;5082458;27;51117;-61
2022/09/20 05:20:47;;;;;;;;;19.25;14.50;;;;;26.07;100.00;101368.06;5067476;27;51218;-61
2022/09/20 05:23:57;;;;;;;;;12.75;12.25;;;;;26.07;100.00;101372.66;5082225;27;51145;-60
2022/09/20 05:27:11;;;;;;;;;17.00;12.75;;;;;26.07;100.00;101376.25;5082125;27;51137;-62
2022/09/20 05:30:14;;;;;;;;;14.75;13.00;;;;;26.07;100.00;101378.09;5054418;27;51608;-60
2022/09/20 05:33:20;;;;;;;;;24.50;18.75;;;;;26.08;100.00;101393.50;5082057;27;51069;-61
2022/09/20 05:36:33;;;;;;;;;15.00;14.50;;;;;26.07;100.00;101384.44;5066822;27;51202;-61
2022/09/20 05:39:36;;;;;;;;;18.00;14.50;;;;;26.07;100.00;101389.03;5020203;27;51526;-61
2022/09/20 05:42:38;;;;;;;;;22.75;15.25;;;;;26.07;100.00;101386.28;5081978;27;51549;-62
2022/09/20 05:45:46;;;;;;;;;22.00;14.75;;;;;26.09;100.00;101392.50;5082041;27;51063;-61
2022/09/20 05:48:53;;;;;;;;;18.00;11.75;;;;;26.11;100.00;101394.22;5066290;27;51183;-61
2022/09/20 05:52:05;;;;;;;;;18.25;14.50;;;;;26.12;100.00;101392.38;5081979;27;51490;-61
2022/09/20 05:55:15;;;;;;;;;14.25;13.25;;;;;26.17;100.00;101394.81;5082042;27;51143;-61
2022/09/20 05:58:54;;;;;;;;;17.50;16.00;;;;;26.21;100.00;101397.28;5082128;27;51569;-61
2022/09/20 06:02:22;;;;;;;;;13.00;11.50;;;;;26.28;100.00;101403.25;4989408;28;51195;-61
2022/09/20 06:05:15;;;;;;;;;17.75;15.25;;;;;26.33;100.00;101405.69;5020056;28;52143;-61
2022/09/20 06:08:21;;;;;;;;;18.25;14.50;;;;;26.40;100.00;101409.84;5076034;27;51454;-60
2022/09/20 06:11:21;;;;;;;;;15.50;13.75;;;;;26.40;100.00;101407.97;5081480;27;51156;-61
2022/09/20 06:14:18;;;;;;;;;17.25;11.75;;;;;26.45;100.00;101418.63;5077110;27;51454;-61
2022/09/20 06:17:22;;;;;;;;;19.25;13.50;;;;;26.51;100.00;101420.09;5066221;27;51183;-61
2022/09/20 06:20:24;;;;;;;;;17.25;14.25;;;;;26.61;100.00;101427.63;5044466;27;51305;-61
2022/09/20 06:23:09;;;;;;;;;15.00;14.25;;;;;26.72;100.00;101424.25;5055731;27;51090;-61
2022/09/20 06:26:05;;;;;;;;;18.25;13.50;;;;;26.83;100.00;101420.88;5048266;27;51412;-61
2022/09/20 06:28:53;;;;;;;;;18.00;14.00;;;;;27.01;100.00;101427.06;5065013;27;51167;-61
2022/09/20 06:31:38;;;;;;;;;18.50;13.00;;;;;27.15;100.00;101434.38;5040402;27;51139;-54
2022/09/20 06:34:23;;;;;;;;;17.75;15.50;;;;;27.33;100.00;101428.75;5076075;27;51230;-53
2022/09/20 06:43:42;;;;;;;;;15.75;12.25;;;;;28.25;100.00;101421.00;5080475;27;51147;-52
2022/09/20 06:46:31;;;;;;;;;23.00;16.25;;;;;28.29;100.00;101423.41;5073970;27;51469;-54
2022/09/20 06:49:16;;;;;;;;;22.00;17.25;;;;;28.32;100.00;101427.78;5075746;27;51285;-52
2022/09/20 06:52:03;;;;;;;;;20.25;15.50;;;;;28.37;100.00;101428.38;5071831;27;51619;-52
2022/09/20 06:54:52;;;;;;;;;20.75;16.50;;;;;28.40;100.00;101432.75;5075758;27;51201;-52
2022/09/20 06:57:37;;;;;;;;;20.00;14.00;;;;;28.37;100.00;101432.94;5062556;27;51144;-52
2022/09/20 07:00:22;;;;;;;;;16.00;15.25;;;;;28.41;100.00;101429.03;5074524;27;51497;-52
2022/09/20 07:03:07;;;;;;;;;15.50;11.75;;;;;28.50;100.00;101433.88;5071639;27;51407;-57
2022/09/20 07:05:52;;;;;;;;;14.00;12.25;;;;;28.54;100.00;101440.91;5072642;27;51575;-54
2022/09/20 07:08:37;;;;;;;;;14.75;11.50;;;;;28.58;100.00;101444.31;5065744;27;51170;-52
2022/09/20 07:11:25;;;;;;;;;12.50;11.00;;;;;28.63;100.00;101442.09;5066180;27;51493;-53
2022/09/20 07:14:09;;;;;;;;;15.00;10.50;;;;;28.70;100.00;101448.03;5072866;27;51557;-56
2022/09/20 07:16:54;;;;;;;;;13.25;11.00;;;;;28.86;100.00;101454.25;5069461;27;51110;-52
2022/09/20 07:19:38;;;;;;;;;13.25;12.75;;;;;29.11;100.00;101455.25;5076077;27;51225;-52
2022/09/20 07:22:22;;;;;;;;;11.00;8.00;;;;;29.46;100.00;101461.97;5058210;27;51258;-49
2022/09/20 07:25:07;;;;;;;;;19.75;11.75;;;;;30.16;100.00;101462.38;5069799;27;51154;-53
2022/09/20 07:27:52;;;;;;;;;15.75;12.25;;;;;31.46;100.00;101452.28;5065365;27;51508;-52
2022/09/20 07:30:37;;;;;;;;;14.00;12.00;;;;;32.26;100.00;101442.97;5068234;27;51793;-57
2022/09/20 07:33:23;;;;;;;;;16.50;11.00;;;;;32.42;100.00;101447.16;5074525;27;51141;-54
2022/09/20 07:36:11;;;;;;;;;11.75;10.50;;;;;32.34;100.00;101450.56;5073006;27;51539;-52
2022/09/20 07:38:56;;;;;;;;;20.00;16.25;;;;;32.27;100.00;101458.50;5059302;27;51169;-54
2022/09/20 07:41:47;;;;;;;;;14.25;12.25;;;;;32.70;100.00;101462.19;5065919;27;51417;-53
2022/09/20 07:44:31;;;;;;;;;13.75;12.00;;;;;32.87;100.00;101458.00;5058982;27;51403;-52
2022/09/20 07:47:16;;;;;;;;;14.25;9.50;;;;;32.62;100.00;101459.22;5076318;27;51225;-56
2022/09/20 07:50:03;;;;;;;;;16.00;11.75;;;;;32.08;100.00;101463.75;5079237;27;51226;-53
2022/09/20 07:52:47;;;;;;;;;16.00;13.75;;;;;31.55;100.00;101473.53;5078774;27;51374;-57
2022/09/20 07:55:33;;;;;;;;;19.75;11.75;;;;;31.20;100.00;101480.91;5070533;27;51212;-54
2022/09/20 07:58:18;;;;;;;;;17.00;12.00;;;;;30.99;100.00;101485.31;5073038;28;51069;-55
2022/09/20 08:01:08;;;;;;;;;24.25;14.50;;;;;30.98;100.00;101489.06;5071409;27;51533;-54
2022/09/20 08:03:53;;;;;;;;;16.00;13.00;;;;;31.05;100.00;101490.34;5071866;28;51213;-54
2022/09/20 08:06:43;;;;;;;;;12.25;11.00;;;;;31.43;100.00;101505.69;5046222;28;51487;-52
2022/09/20 08:09:28;;;;;;;;;13.50;13.25;;;;;31.76;100.00;101494.81;5064763;28;51432;-60
2022/09/20 08:12:13;;;;;;;;;13.75;10.00;;;;;32.29;100.00;101497.78;5081006;27;51444;-58
2022/09/20 08:14:57;;;;;;;;;15.00;12.25;;;;;32.74;100.00;101488.47;5063132;27;51296;-61
2022/09/20 08:17:46;;;;;;;;;15.00;13.25;;;;;32.85;100.00;101459.16;5078394;27;51748;-59
2022/09/20 08:20:30;;;;;;;;;17.00;13.50;;;;;33.18;100.00;101480.09;5052564;28;51120;-55
2022/09/20 08:23:15;;;;;;;;;20.75;12.00;;;;;32.99;100.00;101479.97;5081568;27;51260;-58
2022/09/20 08:25:59;;;;;;;;;15.75;13.25;;;;;32.80;100.00;101489.88;5068873;27;51392;-55
2022/09/20 08:28:45;;;;;;;;;12.00;11.50;;;;;32.70;100.00;101508.16;5066976;27;51462;-56
2022/09/20 08:31:33;;;;;;;;;12.25;8.25;;;;;32.56;100.00;101501.06;5070911;27;51920;-55
2022/09/20 08:34:17;;;;;;;;;13.75;12.50;;;;;32.66;100.00;101507.53;5069685;27;52303;-61
2022/09/20 08:37:01;;;;;;;;;14.75;11.50;;;;;32.88;100.00;101502.94;5076302;27;51328;-55
2022/09/20 08:39:46;;;;;;;;;13.25;11.00;;;;;32.89;100.00;101505.59;5057638;27;51357;-58
2022/09/20 08:42:37;;;;;;;;;14.25;10.00;;;;;32.90;100.00;101509.22;5071398;27;51247;-55
2022/09/20 08:45:25;;;;;;;;;11.00;9.75;;;;;32.87;100.00;101510.34;5066183;27;52233;-53
2022/09/20 08:48:15;;;;;;;;;16.50;12.50;;;;;32.98;100.00;101511.31;5066359;27;51250;-58
2022/09/20 08:51:05;;;;;;;;;12.25;10.00;;;;;33.16;100.00;101515.19;5042676;28;52858;-56
2022/09/20 08:53:52;;;;;;;;;12.25;8.00;;;;;33.27;100.00;101522.53;5069842;27;51266;-55
2022/09/20 08:56:37;;;;;;;;;12.00;11.50;;;;;33.27;100.00;101524.41;5080511;27;51419;-55
2022/09/20 08:59:22;;;;;;;;;14.75;11.25;;;;;33.23;100.00;101521.06;5078888;27;53265;-55
2022/09/20 09:02:18;;;;;;;;;14.25;8.50;;;;;33.39;100.00;101520.59;5042317;28;51194;-54
2022/09/20 09:05:21;;;;;;;;;13.75;12.00;;;;;33.41;100.00;101525.97;5071393;27;51086;-57
2022/09/20 09:08:21;;;;;;;;;11.75;8.50;;;;;33.34;100.00;101531.16;5060161;27;51573;-55
2022/09/20 09:11:14;;;;;;;;;13.00;10.25;;;;;33.29;100.00;101534.28;5080811;27;51178;-52
2022/09/20 09:14:47;;;;;;;;;12.25;10.00;;;;;33.25;100.00;101531.94;5049125;27;51382;-53
2022/09/20 09:17:17;;;;;;;;;15.50;11.00;;;;;33.26;100.00;101534.56;5050706;27;51435;-55
2022/09/20 09:20:16;;;;;;;;;15.50;12.00;;;;;33.47;100.00;101530.97;5078760;27;51404;-52
2022/09/20 09:23:07;;;;;;;;;11.00;9.25;;;;;33.52;100.00;101521.25;5081038;27;53096;-53
2022/09/20 09:25:53;;;;;;;;;12.50;9.75;;;;;33.51;100.00;101524.13;5077595;27;51075;-53
2022/09/20 09:28:38;;;;;;;;;11.00;10.00;;;;;33.48;100.00;101529.94;5069152;27;51152;-55
2022/09/20 09:31:24;;;;;;;;;14.25;10.00;;;;;33.47;100.00;101519.91;5078497;27;52141;-50
2022/09/20 09:34:27;;;;;;;;;14.00;11.00;;;;;33.51;100.00;101521.38;5075065;27;51194;-53
2022/09/20 09:37:30;;;;;;;;;12.75;10.25;;;;;33.42;100.00;101527.72;5081511;27;51085;-60
2022/09/20 09:40:17;;;;;;;;;6.75;6.00;;;;;33.30;100.00;101532.41;5081862;27;51155;-56
2022/09/20 09:43:27;;;;;;;;;13.25;10.00;;;;;33.33;100.00;101529.41;5079912;27;51252;-50
2022/09/20 09:46:22;;;;;;;;;12.50;11.50;;;;;33.12;100.00;101518.38;5045355;28;51311;-55
2022/09/20 09:49:12;;;;;;;;;14.50;11.00;;;;;33.10;100.00;101523.13;5052536;28;51353;-56
2022/09/20 09:52:14;;;;;;;;;10.25;9.00;;;;;33.22;100.00;101514.69;5045250;28;51126;-50
2022/09/20 09:55:02;;;;;;;;;10.50;10.00;;;;;33.43;100.00;101507.41;5054005;28;51203;-55
2022/09/20 09:58:11;;;;;;;;;13.25;9.50;;;;;33.57;100.00;101508.91;5060595;28;51187;-54
2022/09/20 10:00:58;;;;;;;;;12.50;11.25;;;;;33.72;100.00;101507.53;5046164;28;51130;-51
2022/09/20 10:03:55;;;;;;;;;12.00;11.50;;;;;33.86;100.00;101505.44;5061366;28;51036;-54
2022/09/20 10:07:18;;;;;;;;;10.25;9.00;;;;;33.94;100.00;101513.91;5060909;28;51071;-59
2022/09/20 10:10:21;;;;;;;;;13.00;11.25;;;;;33.85;100.00;101504.53;5061220;28;51414;-54
2022/09/20 10:13:14;;;;;;;;;9.00;7.25;;;;;33.80;100.00;101506.84;5061161;28;51182;-57
2022/09/20 10:16:19;;;;;;;;;13.75;11.50;;;;;33.68;100.00;101515.22;5060702;28;51156;-50
2022/09/20 10:19:27;;;;;;;;;15.25;10.50;;;;;33.49;100.00;101516.00;5038989;28;51050;-54
2022/09/20 10:22:30;;;;;;;;;13.00;11.00;;;;;33.36;100.00;101513.47;5061116;28;51063;-55
2022/09/20 10:25:39;;;;;;;;;13.75;11.00;;;;;33.19;100.00;101511.28;5060979;28;51076;-57
2022/09/20 10:28:23;;;;;;;;;14.25;10.00;;;;;32.91;100.00;101509.06;5045910;28;51529;-53
2022/09/20 10:31:20;;;;;;;;;4.25;4.25;;;;;32.81;100.00;101508.13;5060406;28;51403;-56
2022/09/20 10:34:26;;;;;;;;;19.00;13.25;;;;;32.88;100.00;101503.84;5026603;28;51077;-50
2022/09/20 10:37:21;;;;;;;;;14.00;10.75;;;;;32.56;100.00;101507.47;5059877;28;51198;-58
2022/09/20 10:40:19;;;;;;;;;14.00;12.00;;;;;32.03;100.00;101502.69;5060089;28;51226;-53
2022/09/20 10:43:19;;;;;;;;;9.00;9.00;;;;;31.66;100.00;101497.44;5060460;28;51067;-58
2022/09/20 10:46:08;;;;;;;;;7.75;7.00;;;;;31.31;100.00;101496.56;5030625;28;51181;-54
2022/09/20 10:49:16;;;;;;;;;12.75;8.75;;;;;31.07;100.00;101499.31;5044693;28;51186;-51
2022/09/20 10:52:00;;;;;;;;;12.75;7.75;;;;;30.94;100.00;101479.34;5059572;28;51233;-51
2022/09/20 10:55:03;;;;;;;;;14.25;10.25;;;;;31.18;100.00;101491.13;5051398;28;51794;-55
2022/09/20 10:58:15;;;;;;;;;8.25;5.25;;;;;31.43;100.00;101488.31;5043913;28;51179;-55
2022/09/20 11:01:01;;;;;;;;;9.00;7.00;;;;;31.51;100.00;101486.69;5060432;28;51202;-53
2022/09/20 11:04:22;;;;;;;;;13.25;10.25;;;;;31.57;100.00;101490.81;5060504;28;51621;-54
2022/09/20 11:07:27;;;;;;;;;10.25;8.75;;;;;31.72;100.00;101485.09;5041643;28;51803;-51
2022/09/20 11:10:53;;;;;;;;;11.75;9.75;;;;;31.98;100.00;101478.28;5060464;28;51041;-56
2022/09/20 11:13:40;;;;;;;;;9.25;9.25;;;;;32.25;100.00;101476.13;5019451;28;51208;-54
2022/09/20 11:16:26;;;;;;;;;12.25;10.00;;;;;32.58;100.00;101461.38;5060008;28;51068;-55
2022/09/20 11:19:25;;;;;;;;;14.00;11.00;;;;;32.68;100.00;101452.31;5060291;28;51517;-55
2022/09/20 11:22:38;;;;;;;;;13.50;10.50;;;;;32.86;100.00;101442.47;5060111;28;51382;-55
2022/09/20 11:25:37;;;;;;;;;10.00;10.00;;;;;32.92;100.00;101438.28;5048032;28;51346;-57
2022/09/20 11:28:31;;;;;;;;;13.25;11.00;;;;;32.89;100.00;101433.03;5034455;28;51232;-51
2022/09/20 11:31:29;;;;;;;;;12.00;9.00;;;;;32.89;100.00;101422.03;5044515;28;51510;-54
2022/09/20 11:34:33;;;;;;;;;10.00;10.00;;;;;32.82;100.00;101420.81;5045298;28;51206;-54
2022/09/20 11:37:18;;;;;;;;;13.00;8.50;;;;;32.84;100.00;101419.66;5032482;28;51155;-54
2022/09/20 11:40:16;;;;;;;;;13.50;10.25;;;;;32.84;100.00;101410.53;5042857;28;51198;-53
2022/09/20 11:43:05;;;;;;;;;13.50;10.50;;;;;32.88;100.00;101392.72;5060307;28;51099;-53
2022/09/20 11:45:54;;;;;;;;;12.50;10.25;;;;;32.90;100.00;101405.38;5030510;28;51205;-53
2022/09/20 11:48:47;;;;;;;;;9.75;8.25;;;;;32.89;100.00;101399.97;5050560;28;51454;-55
2022/09/20 11:51:34;;;;;;;;;12.25;9.50;;;;;32.95;100.00;101393.03;5050240;28;52936;-51
2022/09/20 11:54:40;;;;;;;;;10.00;9.00;;;;;33.07;100.00;101397.47;5051471;28;51093;-52
2022/09/20 11:57:24;;;;;;;;;11.50;9.50;;;;;33.16;100.00;101382.00;5059131;28;51104;-54
2022/09/20 12:00:10;;;;;;;;;11.75;10.00;;;;;33.25;100.00;101392.19;5059107;28;51087;-56
2022/09/20 12:02:54;;;;;;;;;11.75;9.50;;;;;33.31;100.00;101391.63;5042361;28;51450;-53
2022/09/20 12:05:40;;;;;;;;;9.75;9.25;;;;;33.34;100.00;101383.09;5057380;28;51049;-54
2022/09/20 12:08:39;;;;;;;;;12.75;11.00;;;;;33.32;100.00;101385.09;5044648;28;51169;-52
2022/09/20 12:11:30;;;;;;;;;9.50;9.50;;;;;33.25;100.00;101380.25;5037878;28;51268;-53
2022/09/20 12:14:25;;;;;;;;;14.75;11.25;;;;;33.14;100.00;101376.59;5047003;28;51243;-53
2022/09/20 12:17:46;;;;;;;;;13.50;12.00;;;;;32.97;100.00;101372.59;5056403;28;51287;-58
2022/09/20 12:20:33;;;;;;;;;12.00;9.00;;;;;32.61;100.00;101369.31;5055749;28;51167;-50
2022/09/20 12:23:39;;;;;;;;;10.25;8.00;;;;;32.05;100.00;101359.44;5059406;28;51508;-53
2022/09/20 12:26:26;;;;;;;;;8.00;2.50;;;;;31.60;100.00;101375.03;5058015;28;51216;-53
2022/09/20 12:29:23;;;;;;;;;11.50;9.00;;;;;31.18;100.00;101372.94;5057863;28;51395;-56
2022/09/20 12:32:33;;;;;;;;;8.50;8.50;;;;;30.87;100.00;101371.78;5059442;28;51027;-54
2022/09/20 12:35:37;;;;;;;;;13.75;10.75;;;;;30.71;100.00;101361.16;5055581;28;51097;-53
2022/09/20 12:38:32;;;;;;;;;6.25;5.75;;;;;30.73;100.00;101365.50;5059125;28;51120;-54
2022/09/20 12:41:18;;;;;;;;;9.75;8.50;;;;;30.76;100.00;101354.28;5043461;28;51132;-50
2022/09/20 12:44:19;;;;;;;;;13.75;12.25;;;;;30.71;100.00;101355.66;5050718;28;51274;-53
2022/09/20 12:47:10;;;;;;;;;24.75;20.25;;;;;30.65;100.00;101348.78;5061954;28;51117;-55
2022/09/20 12:53:00;;;;;;;;;21.75;15.25;;;;;30.94;100.00;101340.06;5068875;28;51224;-58
2022/09/20 12:55:49;;;;;;;;;14.00;13.25;;;;;31.15;100.00;101340.22;5063544;28;51475;-53
2022/09/20 12:59:06;;;;;;;;;19.50;18.00;;;;;31.24;100.00;101340.47;5054734;28;51166;-58
2022/09/20 13:01:50;;;;;;;;;21.00;15.25;;;;;31.13;100.00;101336.72;5059341;27;51081;-54
2022/09/20 13:04:54;;;;;;;;;23.75;17.25;;;;;30.89;100.00;101340.44;5080019;27;51155;-53
2022/09/20 13:07:53;;;;;;;;;18.25;17.25;;;;;30.63;100.00;101348.00;5077237;27;51169;-56
2022/09/20 13:10:42;;;;;;;;;16.00;15.50;;;;;30.48;100.00;101349.22;5062089;27;51164;-54
2022/09/20 13:13:31;;;;;;;;;20.25;17.25;;;;;30.36;100.00;101348.28;5064173;27;51050;-57
2022/09/20 13:16:36;;;;;;;;;17.50;14.00;;;;;30.39;100.00;101348.91;5069687;27;51390;-54
2022/09/20 13:19:27;;;;;;;;;21.00;17.75;;;;;30.58;100.00;101342.88;5073392;27;51472;-53
2022/09/20 13:22:26;;;;;;;;;9.00;9.00;;;;;30.91;100.00;101338.44;5067853;27;51560;-51
2022/09/20 13:25:14;;;;;;;;;17.00;13.50;;;;;31.16;100.00;101328.25;5061086;27;51018;-57
2022/09/20 13:28:07;;;;;;;;;15.75;14.50;;;;;31.37;100.00;101313.72;5051926;28;50995;-52